Aeroporto :







RITROVATECI SU...

 
LOGIN :

Iscrizione | Disclaimer

   EN    FR    IT 

 









Sommario :    VFR   VFR Marginale   IFR   IFR Intensivo   IFR Molto Intensivo
Visibilità : 
Base nubi : 
>= 8 km
>= 3000ft
5 / 8 km
1000 / 3000 ft
1500m / 5 km
500 / 1000 ft
800 / 1500m
200 / 500 ft
< 800m
< 200 ft
Simboli :   Temporali  Nebbia  Neve Forte  Precipitazioni Forti  Vento > 20 kt






- Altitudine del aeroporto : 357 ft
- Codice IATA : YSJ


CYSJ - Saint John

ULTIMO METAR :
  • 160700Z 27016G25KT 15SM SKC M05/M13 A2964 RMK SLP044

METARs OBSOLETI :
  • 160600Z 29015G24KT 15SM FEW040 M04/M13 A2960 RMK SC1 SC TR SLP029
  • 160500Z 28023G36KT 15SM FEW041 M03/M12 A2955 RMK SC1 PRESRR SLP013

TAF TAF CYSJ
Valido dal 16 a 06 ore il 16 a 18 ore UTC


160538Z 1606/1618 28022G32KT P6SM FEW040
BECMG 1610/1612 28020G30KT SKC RMK NXT FCST BY 161200Z



MetMap, La meteo Aeronautica in un colpo d'occhio ! - Copyright ORBIFLY Dicembre 2007 - Disclaimer

ORBIFLY MET'MAP TEAM :

Programmazione e sviluppo : Alexandra Zaïnal
Concezione : Baudouin d'Aumeries
Aiuto per la programmazione : Marc-Olivier Méhu
Supporto tecnico e logistico : Manuel Goepfert
Aiuto per la traduzione : Arnaldo La Scala

Contatto : metmap@orbifly.com




FONTI E CREDITI :

   NOAA